• Join FlightAware (Why Join?)
  • Login
  • US Flag 
08:35AM EDT


 

Airport Tracker/Info


-or-


 

Live Flight TrackerFlight Track Log ✈ SKW4540 ✈ 01-Sep-2013 ✈ KSLC - KMSO

Flight Track Log - Related Links

Times and Time Zones

All times are in EDT time to prevent confusion due to time zone crossing. See the SKW4540 flight status page for this flight to view local times or setup timezone preferences in your user account.

Time Position Orientation Groundspeed Altitude Reporting Facility
EDT Latitude Longitude Course Direction KTS MPH feet Rate Location/Type
12:01PM 40.7797 -111.9744 50° Northeast 150 173 4,800  Level Salt Lake Center
12:02PM 40.7514 -112.0492 243° Southwest 233 268 6,300 1,140 Climbing Salt Lake Center
12:03PM 40.7617 -112.0769 296° West 252 290 6,900 1,740 Climbing Salt Lake Center
12:04PM 40.8197 -112.1478 317° Northwest 285 328 9,100 2,160 Climbing Salt Lake Center
12:05PM 41.0144 -112.1180 81° East  Level FlightAware Approximate
12:05PM 40.9067 -112.1897 340° North 298 343 11,400  Level Salt Lake Center
12:06PM 41.0879 -112.0095 50° Northeast  Level FlightAware Approximate
12:06PM 40.9697 -112.1153 42° Northeast 302 348 13,500  Level Salt Lake Center
12:07PM 41.0353 -112.0397 41° Northeast 312 359 15,700 1,800 Climbing Salt Lake Center
12:08PM 41.1042 -111.9594 41° Northeast 323 372 17,300 1,440 Climbing Salt Lake Center
12:09PM 41.1764 -111.8753 41° Northeast 338 389 18,700 1,320 Climbing Salt Lake Center
12:10PM 41.2636 -111.8206 25° Northeast 357 411 20,100 1,440 Climbing Salt Lake Center
12:11PM 41.3636 -111.8033 North 362 417 21,700 1,380 Climbing Salt Lake Center
12:12PM 41.4614 -111.8044 360° North 351 404 23,000 1,020 Climbing Salt Lake Center
12:13PM 41.5592 -111.8447 343° North 369 425 23,900 1,020 Climbing Salt Lake Center
12:14PM 41.6586 -111.8825 344° North 372 428 25,100 1,080 Climbing Salt Lake Center
12:15PM 41.7794 -111.9303 344° North 379 436 26,200 900 Climbing Salt Lake Center
12:16PM 41.8806 -111.9697 344° North 379 436 27,000 780 Climbing Salt Lake Center
12:17PM 41.9861 -112.0103 344° North 391 450 27,800 780 Climbing Salt Lake Center
12:18PM 42.0894 -112.0500 344° North 388 447 28,700 720 Climbing Salt Lake Center
12:19PM 42.1942 -112.0906 344° North 391 450 29,400 540 Climbing Salt Lake Center
12:20PM 42.2989 -112.1306 344° North 391 450 29,900 240 Climbing Salt Lake Center
12:21PM 42.4289 -112.1825 344° North 404 465 30,000  Climbing Salt Lake Center
12:22PM 42.5369 -112.2256 344° North 406 467 30,000  Level Salt Lake Center
12:23PM 42.6453 -112.2675 344° North 406 467 30,000  Level Salt Lake Center
12:24PM 42.7625 -112.3128 344° North 405 466 30,000  Level Salt Lake Center
12:25PM 42.8656 -112.3544 343° North 404 465 30,000  Level Salt Lake Center
12:26PM 42.9692 -112.3956 344° North 404 465 30,000  Level Salt Lake Center
12:27PM 43.0894 -112.4419 344° North 402 463 30,000  Level Salt Lake Center
12:28PM 43.1928 -112.4850 343° North 404 465 30,000  Level Salt Lake Center
12:30PM 43.3128 -112.5339 343° North 402 463 30,000  Level Salt Lake Center
12:31PM 43.4164 -112.5753 344° North 403 464 30,000  Level Salt Lake Center
12:32PM 43.5350 -112.6239 343° North 399 459 30,000  Level Salt Lake Center
12:33PM 43.6381 -112.6639 344° North 400 460 30,000  Level Salt Lake Center
12:34PM 43.7403 -112.7069 343° North 401 461 30,000  Level Salt Lake Center
12:35PM 43.8597 -112.7575 343° North 400 460 30,000  Level Salt Lake Center
12:36PM 43.9625 -112.7992 344° North 400 460 30,000  Level Salt Lake Center
12:37PM 44.0808 -112.8486 343° North 398 458 30,000  Level Salt Lake Center
12:38PM 44.1836 -112.8914 343° North 399 459 30,000  Level Salt Lake Center
12:39PM 44.2875 -112.9339 344° North 402 463 30,000  Level Salt Lake Center
12:40PM 44.4064 -112.9833 343° North 401 461 30,000  Level Salt Lake Center
12:41PM 44.5078 -113.0272 343° North 399 459 30,000  Level Salt Lake Center
12:42PM 44.6256 -113.0772 343° North 397 457 30,000  Level Salt Lake Center
12:43PM 44.7264 -113.1208 343° North 396 456 30,000  Level Salt Lake Center
12:44PM 44.8444 -113.1700 344° North 395 455 30,000  Level Salt Lake Center
12:45PM 44.9453 -113.2133 343° North 395 455 30,000  Level Salt Lake Center
12:46PM 45.0472 -113.2581 343° North 397 457 30,000  Level Salt Lake Center
12:47PM 45.1653 -113.3072 344° North 395 455 30,000  Level Salt Lake Center
12:48PM 45.2661 -113.3514 343° North 396 456 30,000 -60 Level Salt Lake Center
12:49PM 45.3864 -113.4028 343° North 400 460 29,900 -600 Descending Salt Lake Center
12:50PM 45.4869 -113.4461 343° North 397 457 28,800 -1,320 Descending Salt Lake Center
12:51PM 45.5797 -113.4875 343° North 376 433 27,300 -1,560 Descending Salt Lake Center
12:52PM 45.6842 -113.5344 343° North 357 411 25,700 -1,500 Descending Salt Lake Center
12:53PM 45.7750 -113.5747 343° North 356 410 24,200 -1,620 Descending Salt Lake Center
12:54PM 45.8781 -113.6200 343° North 361 415 22,500 -1,620 Descending Salt Lake Center
12:55PM 45.9744 -113.6631 343° North 363 418 21,000 -1,500 Descending Salt Lake Center
12:56PM 46.0706 -113.7033 344° North 362 417 19,500 -1,560 Descending Salt Lake Center
12:57PM 46.1742 -113.7531 342° North 344 396 17,900 -1,500 Descending Salt Lake Center
12:58PM 46.2597 -113.7917 343° North 325 374 16,500 -1,440 Descending Salt Lake Center
12:59PM 46.3447 -113.8314 342° North 322 371 15,000 -1,260 Descending Salt Lake Center
01:00PM 46.4333 -113.8689 344° North 310 357 14,000 -1,080 Descending Salt Lake Center
01:01PM 46.5100 -113.9056 342° North 294 338 12,900 -1,260 Descending Salt Lake Center
01:02PM 46.5872 -113.9414 342° North 292 336 11,500 -1,500 Descending Salt Lake Center
01:03PM 46.6672 -113.9778 343° North 282 325 9,900 -1,440 Descending Salt Lake Center
01:04PM 46.7350 -114.0050 345° North 258 297 8,600 -1,260 Descending Salt Lake Center
01:05PM 46.8022 -114.0014 North 222 255 7,400 -1,500 Descending Salt Lake Center
01:06PM 46.8533 -113.9956 North 183 211 5,600 -1,680 Descending Salt Lake Center
01:08PM 46.8842 -114.0369 317° Northwest 152 175 4,000 -1,200 Descending Salt Lake Center
01:09PM 46.9119 -114.0853 310° West 145 167 3,200 -840 Descending Salt Lake Center